createdAt,value
2023-03-30T00:13:19.469Z,98148.13
2023-03-30T00:33:33.510Z,98144.13
2023-03-30T00:53:40.108Z,98118.37
2023-03-30T01:13:43.004Z,98105.88
2023-03-30T01:33:45.684Z,98096.56
2023-03-30T01:53:48.346Z,98076.50
2023-03-30T02:13:52.428Z,98060.50
2023-03-30T02:33:55.254Z,98056.84
2023-03-30T02:53:57.987Z,98046.47
2023-03-30T03:14:00.893Z,98035.94
2023-03-30T03:34:03.784Z,98007.38
2023-03-30T03:54:06.437Z,97976.22
2023-03-30T04:14:09.241Z,97975.69
2023-03-30T04:34:11.907Z,97957.44
2023-03-30T04:54:14.518Z,97945.91
2023-03-30T05:14:17.500Z,97918.84
2023-03-30T05:34:20.235Z,97904.97
2023-03-30T05:54:23.639Z,97892.84
2023-03-30T06:14:26.443Z,97879.84
2023-03-30T06:34:29.323Z,97870.59
2023-03-30T06:54:31.957Z,97851.25
2023-03-30T07:14:35.053Z,97844.56
2023-03-30T07:34:37.986Z,97848.34
2023-03-30T07:54:40.603Z,97800.94
2023-03-30T08:14:43.544Z,97804.25
2023-03-30T08:34:46.317Z,97803.75
2023-03-30T08:54:50.218Z,97794.56
2023-03-30T09:14:53.168Z,97776.66
2023-03-30T09:34:56.204Z,97727.69
2023-03-30T09:54:58.879Z,97710.25
2023-03-30T10:15:02.373Z,97675.19
2023-03-30T10:35:06.784Z,97649.62
2023-03-30T10:55:09.677Z,97625.34
2023-03-30T11:15:13.625Z,97586.56
2023-03-30T11:35:16.506Z,97556.66
2023-03-30T11:55:19.180Z,97561.03
2023-03-30T12:15:23.749Z,97522.44
2023-03-30T12:35:26.715Z,97492.53
2023-03-30T12:55:29.372Z,97498.50
2023-03-30T13:15:32.686Z,97503.31
2023-03-30T13:35:35.765Z,97512.72
2023-03-30T13:55:38.425Z,97514.69
2023-03-30T14:15:41.260Z,97523.66
2023-03-30T14:35:44.009Z,97517.66
2023-03-30T14:55:46.774Z,97509.75
2023-03-30T15:15:49.653Z,97499.53
2023-03-30T15:35:53.262Z,97494.59
2023-03-30T15:55:56.043Z,97478.19
2023-03-30T16:15:59.108Z,97465.03
2023-03-30T16:36:01.878Z,97455.50
2023-03-30T16:56:04.601Z,97419.31
2023-03-30T17:16:07.713Z,97395.75
2023-03-30T17:36:10.631Z,97356.53
2023-03-30T17:56:13.406Z,97385.22
2023-03-30T18:16:19.240Z,97406.97
2023-03-30T18:36:22.318Z,97411.78
2023-03-30T18:56:25.165Z,97412.69
2023-03-30T19:16:28.080Z,97401.41
2023-03-30T19:36:31.131Z,97391.66
2023-03-30T19:56:33.821Z,97400.25
2023-03-30T20:16:36.871Z,97372.84
2023-03-30T20:36:39.702Z,97354.78
2023-03-30T20:56:42.850Z,97333.16
2023-03-30T21:16:46.169Z,97319.47
2023-03-30T21:36:49.432Z,97301.44
2023-03-30T21:56:53.050Z,97303.06
2023-03-30T22:16:55.956Z,97296.06
2023-03-30T22:36:58.857Z,97294.97
2023-03-30T22:57:01.644Z,97301.03
2023-03-30T23:17:04.624Z,97298.38
2023-03-30T23:37:07.545Z,97297.31
2023-03-30T23:57:10.247Z,97307.81
